Aeroporto :







RITROVATECI SU...

 
LOGIN :

Iscrizione | Disclaimer

   EN    FR    IT 

 









Sommario :    VFR   VFR Marginale   IFR   IFR Intensivo   IFR Molto Intensivo
Visibilità : 
Base nubi : 
>= 8 km
>= 3000ft
5 / 8 km
1000 / 3000 ft
1500m / 5 km
500 / 1000 ft
800 / 1500m
200 / 500 ft
< 800m
< 200 ft
Simboli :   Temporali  Nebbia  Neve Forte  Precipitazioni Forti  Vento > 20 kt







- Altitudine del aeroporto : 577 ft


KVSF - Hartness State (Springfield)

ULTIMO METAR :
  • 211054Z AUTO 29008G21KT 260V340 10SM OVC039 11/03 A2981 RMK AO2 PK WND 28028/1009 SLP092 T01060028

METARs OBSOLETI :
  • 210954Z AUTO 30010G15KT 10SM BKN040 OVC050 11/03 A2978 RMK AO2 SLP084 T01110033
  • 210854Z AUTO 30006KT 10SM OVC039 12/04 A2977 RMK AO2 SLP081 T01170039 53004

TAF N/A
FIR KZBW / America del Nord



MetMap, La meteo Aeronautica in un colpo d'occhio ! - Copyright ORBIFLY Dicembre 2007 - Disclaimer

ORBIFLY MET'MAP TEAM :

Programmazione e sviluppo : Alexandra Zaïnal
Concezione e sviluppo : Baudouin d'Aumeries
Co-Programmazione e sviluppo : Marc-Olivier Méhu
Supporto tecnico e logistico : Manuel Goepfert
Aiuto per la traduzione : Arnaldo La Scala

Contatto : metmap@orbifly.com




FONTI E CREDITI :

   NOAA